createdAt,value
2023-03-04T00:00:21.152Z,9.29
2023-03-04T00:02:25.639Z,9.28
2023-03-04T00:04:30.076Z,9.28
2023-03-04T00:06:34.457Z,9.27
2023-03-04T00:08:38.820Z,9.26
2023-03-04T00:10:43.332Z,9.26
2023-03-04T00:12:50.404Z,9.22
2023-03-04T00:14:55.432Z,9.20
2023-03-04T00:16:59.818Z,9.19
2023-03-04T00:19:04.582Z,9.18
2023-03-04T00:21:08.987Z,9.18
2023-03-04T00:23:13.452Z,9.16
2023-03-04T00:25:18.103Z,9.12
2023-03-04T00:27:22.521Z,9.11
2023-03-04T00:29:29.612Z,9.07
2023-03-04T00:31:34.081Z,9.06
2023-03-04T00:33:38.467Z,9.07
2023-03-04T00:35:43.184Z,9.08
2023-03-04T00:37:47.639Z,9.06
2023-03-04T00:39:52.109Z,9.05
2023-03-04T00:41:56.701Z,9.05
2023-03-04T00:44:01.069Z,9.02
2023-03-04T00:46:08.095Z,8.97
2023-03-04T00:48:13.137Z,8.96
2023-03-04T00:50:17.574Z,8.95
2023-03-04T00:52:21.924Z,8.94
2023-03-04T00:54:26.305Z,8.93
2023-03-04T00:56:31.023Z,8.94
2023-03-04T00:58:35.475Z,8.93
2023-03-04T01:00:39.924Z,8.91
2023-03-04T01:02:46.931Z,8.88
2023-03-04T01:04:51.690Z,8.83
2023-03-04T01:06:56.085Z,8.79
2023-03-04T01:09:00.513Z,8.76
2023-03-04T01:11:04.868Z,8.72
2023-03-04T01:13:09.372Z,8.69
2023-03-04T01:15:14.628Z,8.67
2023-03-04T01:17:19.138Z,8.64
2023-03-04T01:19:26.142Z,8.63
2023-03-04T01:21:30.511Z,8.62
2023-03-04T01:23:35.092Z,8.64
2023-03-04T01:25:39.538Z,8.65
2023-03-04T01:27:43.938Z,8.66
2023-03-04T01:29:48.883Z,8.64
2023-03-04T01:31:53.254Z,8.64
2023-03-04T01:33:58.007Z,8.62
2023-03-04T01:36:04.930Z,8.60
2023-03-04T01:38:09.424Z,8.60
2023-03-04T01:40:15.723Z,8.59
2023-03-04T01:42:21.309Z,8.60
2023-03-04T01:44:25.768Z,8.60
2023-03-04T01:46:30.300Z,8.59
2023-03-04T01:48:38.007Z,8.61
2023-03-04T01:50:42.518Z,8.60
2023-03-04T01:52:49.649Z,8.60
2023-03-04T01:54:54.219Z,8.60
2023-03-04T01:57:00.273Z,8.55
2023-03-04T01:59:11.955Z,8.54
2023-03-04T02:01:16.852Z,8.51
2023-03-04T02:03:22.463Z,8.50
2023-03-04T02:05:27.373Z,8.48
2023-03-04T02:07:32.013Z,8.47
2023-03-04T02:09:41.070Z,8.46
2023-03-04T02:11:46.070Z,8.46
2023-03-04T02:13:50.413Z,8.44
2023-03-04T02:15:54.870Z,8.41
2023-03-04T02:18:00.246Z,8.39
2023-03-04T02:20:07.895Z,8.37
2023-03-04T02:22:12.274Z,8.36
2023-03-04T02:24:18.388Z,8.33
2023-03-04T02:26:26.517Z,8.30
2023-03-04T02:28:31.933Z,8.27
2023-03-04T02:30:36.511Z,8.24
2023-03-04T02:32:41.030Z,8.23
2023-03-04T02:34:48.563Z,8.21
2023-03-04T02:36:54.245Z,8.20
2023-03-04T02:39:03.537Z,8.20
2023-03-04T02:41:09.466Z,8.17
2023-03-04T02:43:16.982Z,8.17
2023-03-04T02:45:33.901Z,8.16
2023-03-04T02:47:38.246Z,8.15
2023-03-04T02:49:43.595Z,8.16
2023-03-04T02:51:49.605Z,8.17
2023-03-04T02:53:54.064Z,8.20
2023-03-04T02:56:00.153Z,8.19
2023-03-04T02:58:08.786Z,8.22
2023-03-04T03:00:17.588Z,8.17
2023-03-04T03:02:22.030Z,8.12
2023-03-04T03:04:26.579Z,8.08
2023-03-04T03:06:32.017Z,8.07
2023-03-04T03:08:36.380Z,8.06
2023-03-04T03:10:40.821Z,8.06
2023-03-04T03:12:45.664Z,8.04
2023-03-04T03:14:50.228Z,8.03
2023-03-04T03:16:59.667Z,8.02
2023-03-04T03:19:04.136Z,8.00
2023-03-04T03:21:09.235Z,7.99
2023-03-04T03:23:13.706Z,7.95
2023-03-04T03:25:18.969Z,7.93
2023-03-04T03:27:23.541Z,7.92
2023-03-04T03:29:28.256Z,7.91
2023-03-04T03:31:32.665Z,7.89
2023-03-04T03:33:39.937Z,7.88
2023-03-04T03:35:44.568Z,7.88
2023-03-04T03:37:49.973Z,7.90
2023-03-04T03:39:54.356Z,7.91
2023-03-04T03:41:58.733Z,7.92
2023-03-04T03:44:03.236Z,7.93
2023-03-04T03:46:08.038Z,7.94
2023-03-04T03:48:12.483Z,7.93
2023-03-04T03:50:19.572Z,7.92
2023-03-04T03:52:23.958Z,7.91
2023-03-04T03:54:28.340Z,7.89
2023-03-04T03:56:32.705Z,7.88
2023-03-04T03:58:37.054Z,7.86
2023-03-04T04:00:41.782Z,7.84
2023-03-04T04:02:46.230Z,7.83
2023-03-04T04:04:50.846Z,7.79
2023-03-04T04:06:57.807Z,7.80
2023-03-04T04:09:02.347Z,7.79
2023-03-04T04:11:07.024Z,7.79
2023-03-04T04:13:11.459Z,7.79
2023-03-04T04:15:16.171Z,7.76
2023-03-04T04:17:20.536Z,7.73
2023-03-04T04:19:24.940Z,7.69
2023-03-04T04:21:29.364Z,7.69
2023-03-04T04:23:36.302Z,7.68
2023-03-04T04:25:40.761Z,7.67
2023-03-04T04:27:45.119Z,7.67
2023-03-04T04:29:49.565Z,7.65
2023-03-04T04:31:53.933Z,7.66
2023-03-04T04:33:58.340Z,7.66
2023-03-04T04:36:03.633Z,7.67
2023-03-04T04:38:08.147Z,7.65
2023-03-04T04:40:16.811Z,7.64
2023-03-04T04:42:21.232Z,7.63
2023-03-04T04:44:25.549Z,7.63
2023-03-04T04:46:30.088Z,7.61
2023-03-04T04:48:34.506Z,7.62
2023-03-04T04:50:38.945Z,7.60
2023-03-04T04:52:43.293Z,7.60
2023-03-04T04:54:47.673Z,7.58
2023-03-04T04:56:54.609Z,7.56
2023-03-04T04:59:00.312Z,7.54
2023-03-04T05:01:04.938Z,7.50
2023-03-04T05:03:09.369Z,7.48
2023-03-04T05:05:13.860Z,7.46
2023-03-04T05:07:18.308Z,7.45
2023-03-04T05:09:23.114Z,7.44
2023-03-04T05:11:27.506Z,7.45
2023-03-04T05:13:34.724Z,7.46
2023-03-04T05:15:40.187Z,7.44
2023-03-04T05:17:44.728Z,7.44
2023-03-04T05:19:49.106Z,7.42
2023-03-04T05:21:53.422Z,7.38
2023-03-04T05:23:58.153Z,7.34
2023-03-04T05:26:02.790Z,7.32
2023-03-04T05:28:12.416Z,7.30
2023-03-04T05:30:19.633Z,7.25
2023-03-04T05:32:24.141Z,7.23
2023-03-04T05:34:28.522Z,7.22
2023-03-04T05:36:32.985Z,7.20
2023-03-04T05:38:37.972Z,7.19
2023-03-04T05:40:42.712Z,7.16
2023-03-04T05:42:47.073Z,7.14
2023-03-04T05:44:51.423Z,7.15
2023-03-04T05:46:58.344Z,7.15
2023-03-04T05:49:02.732Z,7.15
2023-03-04T05:51:07.446Z,7.15
2023-03-04T05:53:12.072Z,7.11
2023-03-04T05:55:16.934Z,7.07
2023-03-04T05:57:21.375Z,7.02
2023-03-04T05:59:25.777Z,6.98
2023-03-04T06:01:31.413Z,6.97
2023-03-04T06:03:38.631Z,6.94
2023-03-04T06:05:43.218Z,6.93
2023-03-04T06:07:47.825Z,6.90
2023-03-04T06:09:52.176Z,6.89
2023-03-04T06:11:56.495Z,6.87
2023-03-04T06:14:00.863Z,6.82
2023-03-04T06:16:05.305Z,6.79
2023-03-04T06:18:10.788Z,6.75
2023-03-04T06:20:18.923Z,6.74
2023-03-04T06:22:23.295Z,6.71
2023-03-04T06:24:28.407Z,6.73
2023-03-04T06:26:33.052Z,6.75
2023-03-04T06:28:37.614Z,6.77
2023-03-04T06:30:41.995Z,6.79
2023-03-04T06:32:48.073Z,6.80
2023-03-04T06:34:52.464Z,6.84
2023-03-04T06:36:59.603Z,6.86
2023-03-04T06:39:04.793Z,6.91
2023-03-04T06:41:09.783Z,6.92
2023-03-04T06:43:14.240Z,6.91
2023-03-04T06:45:18.634Z,6.92
2023-03-04T06:47:23.017Z,6.92
2023-03-04T06:49:27.451Z,6.93
2023-03-04T06:51:31.953Z,6.96
2023-03-04T06:53:39.132Z,6.96
2023-03-04T06:55:43.935Z,6.99
2023-03-04T06:57:48.650Z,7.03
2023-03-04T06:59:53.111Z,7.05
2023-03-04T07:01:57.503Z,7.10
2023-03-04T07:04:02.191Z,7.12
2023-03-04T07:06:06.761Z,7.14
2023-03-04T07:08:11.156Z,7.14
2023-03-04T07:10:18.254Z,7.16
2023-03-04T07:12:22.633Z,7.20
2023-03-04T07:14:27.949Z,7.22
2023-03-04T07:16:32.787Z,7.25
2023-03-04T07:18:37.347Z,7.25
2023-03-04T07:20:41.793Z,7.28
2023-03-04T07:22:46.219Z,7.30
2023-03-04T07:24:50.616Z,7.31
2023-03-04T07:26:57.616Z,7.33
2023-03-04T07:29:02.061Z,7.37
2023-03-04T07:31:13.967Z,7.45
2023-03-04T07:33:18.600Z,7.54
2023-03-04T07:35:22.986Z,7.59
2023-03-04T07:37:27.425Z,7.66
2023-03-04T07:39:31.759Z,7.72
2023-03-04T07:41:37.384Z,7.79
2023-03-04T07:43:44.562Z,7.85
2023-03-04T07:45:49.001Z,7.94
2023-03-04T07:47:54.264Z,8.01
2023-03-04T07:49:58.949Z,8.12
2023-03-04T07:52:05.614Z,8.19
2023-03-04T07:54:10.087Z,8.19
2023-03-04T07:56:15.279Z,8.24
2023-03-04T07:58:20.180Z,8.30
2023-03-04T08:00:28.465Z,8.39
2023-03-04T08:02:33.161Z,8.46
2023-03-04T08:04:37.850Z,8.50
2023-03-04T08:06:43.348Z,8.56
2023-03-04T08:08:48.444Z,8.60
2023-03-04T08:10:52.855Z,8.63
2023-03-04T08:12:57.233Z,8.69
2023-03-04T08:15:01.701Z,8.77
2023-03-04T08:17:09.883Z,8.83
2023-03-04T08:19:15.015Z,8.95
2023-03-04T08:21:21.168Z,9.08
2023-03-04T08:23:25.741Z,9.18
2023-03-04T08:25:30.246Z,9.31
2023-03-04T08:27:34.624Z,9.39
2023-03-04T08:29:38.961Z,9.47
2023-03-04T08:31:46.873Z,9.57
2023-03-04T08:33:56.651Z,9.69
2023-03-04T08:36:01.098Z,9.79
2023-03-04T08:38:05.482Z,9.92
2023-03-04T08:40:10.762Z,10.06
2023-03-04T08:42:15.927Z,10.20
2023-03-04T08:44:20.348Z,10.32
2023-03-04T08:46:24.820Z,10.41
2023-03-04T08:48:29.761Z,10.56
2023-03-04T08:50:37.047Z,10.75
2023-03-04T08:52:41.481Z,10.95
2023-03-04T08:54:45.801Z,11.14
2023-03-04T08:56:50.462Z,11.35
2023-03-04T08:58:54.821Z,11.55
2023-03-04T09:00:59.483Z,11.77
2023-03-04T09:03:04.093Z,11.98
2023-03-04T09:05:09.286Z,12.19
2023-03-04T09:07:16.438Z,12.42
2023-03-04T09:09:21.112Z,12.62
2023-03-04T09:11:26.079Z,12.76
2023-03-04T09:13:31.646Z,12.80
2023-03-04T09:15:36.742Z,12.91
2023-03-04T09:17:41.701Z,13.05
2023-03-04T09:19:46.049Z,13.26
2023-03-04T09:21:50.617Z,13.50
2023-03-04T09:23:57.698Z,13.73
2023-03-04T09:26:02.053Z,13.95
2023-03-04T09:28:06.796Z,14.08
2023-03-04T09:30:12.370Z,14.17
2023-03-04T09:32:16.731Z,14.38
2023-03-04T09:34:21.378Z,14.60
2023-03-04T09:36:26.067Z,14.86
2023-03-04T09:38:30.724Z,15.26
2023-03-04T09:40:41.905Z,15.68
2023-03-04T09:42:49.226Z,16.02
2023-03-04T09:44:55.053Z,16.29
2023-03-04T09:47:01.660Z,16.60
2023-03-04T09:49:07.415Z,16.87
2023-03-04T09:51:21.263Z,17.13
2023-03-04T09:53:28.612Z,17.36
2023-03-04T09:55:36.616Z,17.51
2023-03-04T09:57:47.313Z,17.64
2023-03-04T09:59:54.954Z,17.80
2023-03-04T10:01:59.959Z,17.94
2023-03-04T10:04:06.217Z,18.11
2023-03-04T10:06:13.257Z,18.25
2023-03-04T10:08:24.735Z,18.36
2023-03-04T10:10:32.094Z,18.45
2023-03-04T10:12:41.251Z,18.54
2023-03-04T10:14:51.399Z,18.62
2023-03-04T10:16:59.830Z,18.69
2023-03-04T10:19:10.125Z,18.79
2023-03-04T10:21:18.770Z,18.88
2023-03-04T10:23:26.597Z,18.96
2023-03-04T10:25:32.335Z,19.05
2023-03-04T10:27:37.495Z,19.10
2023-03-04T10:29:42.645Z,19.14
2023-03-04T10:31:49.830Z,19.17
2023-03-04T10:33:54.301Z,19.20
2023-03-04T10:36:03.125Z,19.23
2023-03-04T10:38:07.563Z,19.25
2023-03-04T10:40:20.899Z,19.27
2023-03-04T10:42:38.004Z,19.27
2023-03-04T10:44:44.870Z,19.27
2023-03-04T10:46:52.197Z,19.25
2023-03-04T10:48:57.194Z,19.24
2023-03-04T10:51:14.395Z,19.23
2023-03-04T10:53:28.163Z,19.20
2023-03-04T10:55:33.504Z,19.22
2023-03-04T10:57:39.347Z,19.24
2023-03-04T10:59:46.237Z,19.26
2023-03-04T11:01:56.755Z,19.26
2023-03-04T11:04:01.441Z,19.25
2023-03-04T11:06:13.285Z,19.27
2023-03-04T11:08:20.100Z,19.29
2023-03-04T11:10:25.201Z,19.32
2023-03-04T11:12:35.791Z,19.35
2023-03-04T11:14:44.364Z,19.36
2023-03-04T11:16:58.034Z,19.35
2023-03-04T11:19:05.530Z,19.36
2023-03-04T11:21:10.626Z,19.38
2023-03-04T11:23:17.204Z,19.39
2023-03-04T11:25:26.452Z,19.40
2023-03-04T11:27:37.130Z,19.41
2023-03-04T11:29:46.379Z,19.44
2023-03-04T11:31:53.337Z,19.46
2023-03-04T11:34:03.777Z,19.47
2023-03-04T11:36:16.221Z,19.49
2023-03-04T11:38:22.293Z,19.51
2023-03-04T11:40:31.846Z,19.56
2023-03-04T11:42:40.111Z,19.61
2023-03-04T11:44:44.558Z,19.64
2023-03-04T11:46:55.282Z,19.66
2023-03-04T11:49:08.902Z,19.67
2023-03-04T11:51:16.293Z,19.63
2023-03-04T11:53:29.452Z,19.59
2023-03-04T11:55:39.588Z,19.57
2023-03-04T11:57:52.079Z,19.55
2023-03-04T12:00:03.856Z,19.47
2023-03-04T12:02:20.451Z,19.35
2023-03-04T12:04:37.611Z,19.25
2023-03-04T12:06:47.248Z,19.22
2023-03-04T12:08:57.318Z,19.16
2023-03-04T12:11:05.181Z,19.14
2023-03-04T12:13:16.990Z,19.12
2023-03-04T12:15:23.570Z,19.09
2023-03-04T12:17:37.260Z,19.10
2023-03-04T12:19:50.636Z,19.08
2023-03-04T12:22:03.923Z,19.07
2023-03-04T12:24:19.063Z,19.04
2023-03-04T12:26:28.358Z,19.01
2023-03-04T12:28:53.797Z,18.92
2023-03-04T12:31:06.015Z,18.86
2023-03-04T12:33:16.073Z,18.82
2023-03-04T12:35:40.609Z,18.81
2023-03-04T12:37:56.795Z,18.79
2023-03-04T12:40:08.723Z,18.76
2023-03-04T12:42:21.693Z,18.72
2023-03-04T12:44:29.749Z,18.71
2023-03-04T12:46:38.997Z,18.70
2023-03-04T12:48:45.523Z,18.68
2023-03-04T12:50:58.366Z,18.65
2023-03-04T12:53:09.663Z,18.63
2023-03-04T12:55:17.133Z,18.59
2023-03-04T12:57:23.231Z,18.56
2023-03-04T12:59:29.349Z,18.54
2023-03-04T13:01:36.868Z,18.50
2023-03-04T13:03:47.144Z,18.48
2023-03-04T13:06:04.951Z,18.45
2023-03-04T13:08:15.593Z,18.41
2023-03-04T13:10:21.016Z,18.41
2023-03-04T13:12:26.025Z,18.37
2023-03-04T13:14:31.723Z,18.33
2023-03-04T13:16:39.285Z,18.30
2023-03-04T13:18:45.233Z,18.21
2023-03-04T13:20:50.272Z,18.13
2023-03-04T13:22:59.454Z,18.05
2023-03-04T13:25:25.179Z,18.03
2023-03-04T13:27:44.598Z,17.98
2023-03-04T13:29:49.054Z,17.92
2023-03-04T13:32:00.580Z,17.91
2023-03-04T13:34:07.283Z,17.91
2023-03-04T13:36:29.606Z,17.93
2023-03-04T13:38:39.019Z,17.94
2023-03-04T13:40:43.537Z,17.91
2023-03-04T13:42:48.032Z,17.88
2023-03-04T13:45:02.977Z,17.88
2023-03-04T13:47:10.785Z,17.88
2023-03-04T13:49:21.454Z,17.87
2023-03-04T13:51:29.988Z,17.85
2023-03-04T13:53:55.797Z,17.83
2023-03-04T13:56:20.544Z,17.80
2023-03-04T13:58:29.485Z,17.80
2023-03-04T14:00:33.846Z,17.80
2023-03-04T14:02:38.308Z,17.76
2023-03-04T14:04:43.474Z,17.72
2023-03-04T14:06:48.551Z,17.70
2023-03-04T14:08:53.690Z,17.67
2023-03-04T14:10:58.756Z,17.65
2023-03-04T14:13:03.420Z,17.56
2023-03-04T14:15:23.447Z,17.50
2023-03-04T14:17:29.810Z,17.42
2023-03-04T14:19:36.150Z,17.35
2023-03-04T14:21:40.561Z,17.31
2023-03-04T14:23:45.127Z,17.28
2023-03-04T14:25:49.554Z,17.22
2023-03-04T14:28:04.386Z,17.14
2023-03-04T14:30:31.825Z,17.05
2023-03-04T14:32:39.930Z,16.97
2023-03-04T14:34:44.338Z,16.91
2023-03-04T14:36:48.749Z,16.85
2023-03-04T14:38:55.678Z,16.76
2023-03-04T14:41:02.608Z,16.67
2023-03-04T14:43:08.755Z,16.56
2023-03-04T14:45:18.346Z,16.46
2023-03-04T14:47:26.442Z,16.33
2023-03-04T14:49:31.061Z,16.20
2023-03-04T14:51:41.582Z,16.09
2023-03-04T14:53:56.158Z,16.00
2023-03-04T14:56:01.432Z,15.88
2023-03-04T14:58:10.423Z,15.78
2023-03-04T15:00:28.182Z,15.68
2023-03-04T15:02:38.545Z,15.60
2023-03-04T15:04:43.595Z,15.52
2023-03-04T15:06:52.217Z,15.44
2023-03-04T15:09:01.699Z,15.35
2023-03-04T15:11:07.022Z,15.23
2023-03-04T15:13:12.167Z,15.11
2023-03-04T15:15:32.510Z,14.99
2023-03-04T15:17:42.569Z,14.89
2023-03-04T15:19:46.987Z,14.77
2023-03-04T15:21:51.323Z,14.67
2023-03-04T15:23:55.757Z,14.58
2023-03-04T15:26:01.817Z,14.50
2023-03-04T15:28:06.955Z,14.42
2023-03-04T15:30:18.350Z,14.34
2023-03-04T15:32:22.706Z,14.28
2023-03-04T15:34:30.341Z,14.23
2023-03-04T15:36:35.087Z,14.17
2023-03-04T15:38:39.873Z,14.11
2023-03-04T15:40:45.682Z,14.04
2023-03-04T15:42:50.048Z,13.96
2023-03-04T15:44:54.478Z,13.88
2023-03-04T15:46:58.831Z,13.81
2023-03-04T15:49:03.255Z,13.73
2023-03-04T15:51:15.357Z,13.65
2023-03-04T15:53:22.824Z,13.60
2023-03-04T15:55:27.531Z,13.54
2023-03-04T15:57:31.919Z,13.49
2023-03-04T15:59:36.279Z,13.41
2023-03-04T16:01:40.784Z,13.34
2023-03-04T16:03:45.336Z,13.27
2023-03-04T16:05:50.860Z,13.19
2023-03-04T16:07:57.812Z,13.11
2023-03-04T16:10:04.283Z,13.03
2023-03-04T16:12:09.083Z,12.96
2023-03-04T16:14:14.616Z,12.86
2023-03-04T16:16:19.730Z,12.80
2023-03-04T16:18:24.262Z,12.72
2023-03-04T16:20:31.404Z,12.65
2023-03-04T16:22:35.919Z,12.57
2023-03-04T16:24:43.177Z,12.53
2023-03-04T16:26:47.785Z,12.47
2023-03-04T16:28:52.308Z,12.42
2023-03-04T16:30:56.768Z,12.34
2023-03-04T16:33:01.122Z,12.31
2023-03-04T16:35:05.538Z,12.27
2023-03-04T16:37:14.999Z,12.21
2023-03-04T16:39:22.977Z,12.17
2023-03-04T16:41:31.156Z,12.14
2023-03-04T16:43:35.548Z,12.09
2023-03-04T16:45:39.925Z,12.07
2023-03-04T16:47:44.302Z,12.03
2023-03-04T16:49:49.835Z,11.94
2023-03-04T16:51:54.388Z,11.85
2023-03-04T16:54:00.277Z,11.80
2023-03-04T16:56:07.300Z,11.72
2023-03-04T16:58:14.697Z,11.68
2023-03-04T17:00:19.950Z,11.64
2023-03-04T17:02:26.890Z,11.59
2023-03-04T17:04:31.844Z,11.53
2023-03-04T17:06:38.413Z,11.47
2023-03-04T17:08:43.293Z,11.44
2023-03-04T17:10:48.873Z,11.42
2023-03-04T17:12:53.574Z,11.43
2023-03-04T17:15:00.494Z,11.43
2023-03-04T17:17:05.566Z,11.41
2023-03-04T17:19:09.911Z,11.41
2023-03-04T17:21:15.483Z,11.38
2023-03-04T17:23:19.869Z,11.37
2023-03-04T17:25:24.280Z,11.35
2023-03-04T17:27:28.758Z,11.33
2023-03-04T17:29:33.152Z,11.28
2023-03-04T17:31:40.647Z,11.24
2023-03-04T17:33:45.081Z,11.21
2023-03-04T17:35:49.551Z,11.17
2023-03-04T17:37:55.418Z,11.16
2023-03-04T17:39:59.751Z,11.15
2023-03-04T17:42:04.122Z,11.13
2023-03-04T17:44:08.641Z,11.11
2023-03-04T17:46:14.148Z,11.07
2023-03-04T17:48:21.343Z,11.03
2023-03-04T17:50:25.734Z,11.02
2023-03-04T17:52:30.351Z,10.97
2023-03-04T17:54:36.148Z,10.94
2023-03-04T17:56:41.973Z,10.90
2023-03-04T17:58:46.421Z,10.86
2023-03-04T18:00:51.283Z,10.83
2023-03-04T18:02:55.699Z,10.81
2023-03-04T18:05:05.794Z,10.80
2023-03-04T18:07:10.197Z,10.78
2023-03-04T18:09:14.673Z,10.75
2023-03-04T18:11:19.195Z,10.72
2023-03-04T18:13:23.597Z,10.68
2023-03-04T18:15:27.996Z,10.67
2023-03-04T18:17:32.312Z,10.63
2023-03-04T18:19:36.730Z,10.60
2023-03-04T18:21:43.808Z,10.56
2023-03-04T18:23:48.182Z,10.54
2023-03-04T18:25:53.236Z,10.53
2023-03-04T18:27:57.692Z,10.51
2023-03-04T18:30:02.019Z,10.50
2023-03-04T18:32:06.737Z,10.48
2023-03-04T18:34:11.159Z,10.46
2023-03-04T18:36:16.056Z,10.46
2023-03-04T18:38:23.016Z,10.45
2023-03-04T18:40:27.638Z,10.43
2023-03-04T18:42:32.286Z,10.42
2023-03-04T18:44:36.987Z,10.39
2023-03-04T18:46:44.152Z,10.38
2023-03-04T18:48:49.387Z,10.36
2023-03-04T18:50:53.936Z,10.35
2023-03-04T18:52:58.537Z,10.34
2023-03-04T18:55:05.455Z,10.34
2023-03-04T18:57:11.581Z,10.33
2023-03-04T18:59:18.361Z,10.30
2023-03-04T19:01:24.576Z,10.30
2023-03-04T19:03:29.274Z,10.26
2023-03-04T19:05:35.127Z,10.20
2023-03-04T19:07:39.485Z,10.15
2023-03-04T19:09:44.006Z,10.11
2023-03-04T19:11:51.086Z,10.10
2023-03-04T19:13:55.477Z,10.04
2023-03-04T19:15:59.851Z,10.00
2023-03-04T19:18:05.529Z,9.98
2023-03-04T19:20:11.490Z,9.90
2023-03-04T19:22:15.878Z,9.78
2023-03-04T19:24:20.223Z,9.73
2023-03-04T19:26:24.680Z,9.66
2023-03-04T19:28:31.713Z,9.65
2023-03-04T19:30:36.262Z,9.62
2023-03-04T19:32:40.801Z,9.59
2023-03-04T19:34:45.328Z,9.57
2023-03-04T19:36:49.892Z,9.54
2023-03-04T19:38:55.684Z,9.51
2023-03-04T19:41:00.448Z,9.39
2023-03-04T19:43:04.863Z,9.27
2023-03-04T19:45:12.428Z,9.21
2023-03-04T19:47:16.878Z,9.18
2023-03-04T19:49:22.525Z,9.13
2023-03-04T19:51:29.237Z,9.06
2023-03-04T19:53:34.967Z,9.03
2023-03-04T19:55:39.827Z,8.98
2023-03-04T19:57:44.580Z,8.93
2023-03-04T19:59:49.127Z,8.83
2023-03-04T20:01:56.858Z,8.75
2023-03-04T20:04:02.583Z,8.71
2023-03-04T20:06:08.135Z,8.68
2023-03-04T20:08:12.598Z,8.68
2023-03-04T20:10:18.913Z,8.71
2023-03-04T20:12:23.481Z,8.72
2023-03-04T20:14:28.051Z,8.72
2023-03-04T20:16:32.598Z,8.68
2023-03-04T20:18:39.836Z,8.67
2023-03-04T20:20:44.328Z,8.69
2023-03-04T20:22:48.741Z,8.68
2023-03-04T20:24:54.936Z,8.70
2023-03-04T20:26:59.749Z,8.72
2023-03-04T20:29:04.212Z,8.72
2023-03-04T20:31:12.403Z,8.60
2023-03-04T20:33:16.861Z,8.46
2023-03-04T20:35:23.965Z,8.35
2023-03-04T20:37:28.422Z,8.27
2023-03-04T20:39:32.872Z,8.23
2023-03-04T20:41:37.392Z,8.22
2023-03-04T20:43:42.939Z,8.18
2023-03-04T20:45:47.381Z,8.15
2023-03-04T20:47:51.773Z,8.07
2023-03-04T20:49:56.812Z,8.02
2023-03-04T20:52:06.606Z,7.97
2023-03-04T20:54:11.610Z,7.91
2023-03-04T20:56:16.041Z,7.83
2023-03-04T20:58:20.454Z,7.80
2023-03-04T21:00:25.009Z,7.82
2023-03-04T21:02:29.542Z,7.80
2023-03-04T21:04:34.508Z,7.78
2023-03-04T21:06:40.674Z,7.78
2023-03-04T21:08:47.864Z,7.75
2023-03-04T21:10:52.545Z,7.73
2023-03-04T21:12:57.007Z,7.74
2023-03-04T21:15:01.567Z,7.72
2023-03-04T21:17:07.039Z,7.67
2023-03-04T21:19:16.807Z,7.65
2023-03-04T21:21:23.202Z,7.62
2023-03-04T21:23:27.620Z,7.64
2023-03-04T21:25:34.616Z,7.68
2023-03-04T21:27:42.720Z,7.73
2023-03-04T21:29:49.391Z,7.79
2023-03-04T21:31:55.484Z,7.79
2023-03-04T21:34:00.767Z,7.82
2023-03-04T21:36:05.197Z,7.85
2023-03-04T21:38:09.607Z,7.82
2023-03-04T21:40:14.860Z,7.80
2023-03-04T21:42:21.980Z,7.76
2023-03-04T21:44:33.725Z,7.80
2023-03-04T21:46:52.593Z,7.83
2023-03-04T21:48:57.046Z,7.84
2023-03-04T21:51:04.537Z,7.85
2023-03-04T21:53:09.058Z,7.80
2023-03-04T21:55:14.971Z,7.77
2023-03-04T21:57:22.244Z,7.76
2023-03-04T21:59:26.678Z,7.75
2023-03-04T22:01:31.284Z,7.76
2023-03-04T22:03:35.705Z,7.83
2023-03-04T22:05:45.000Z,7.89
2023-03-04T22:07:49.505Z,7.92
2023-03-04T22:09:54.367Z,7.92
2023-03-04T22:11:58.814Z,7.91
2023-03-04T22:14:06.196Z,7.89
2023-03-04T22:16:11.044Z,7.90
2023-03-04T22:18:16.735Z,7.91
2023-03-04T22:20:21.443Z,7.94
2023-03-04T22:22:25.896Z,7.94
2023-03-04T22:24:30.460Z,7.90
2023-03-04T22:26:35.073Z,7.83
2023-03-04T22:28:39.848Z,7.79
2023-03-04T22:30:47.061Z,7.71
2023-03-04T22:32:51.672Z,7.70
2023-03-04T22:34:56.170Z,7.73
2023-03-04T22:37:00.616Z,7.74
2023-03-04T22:39:05.607Z,7.80
2023-03-04T22:41:15.208Z,7.82
2023-03-04T22:43:19.694Z,7.85
2023-03-04T22:45:27.910Z,7.87
2023-03-04T22:47:35.369Z,7.89
2023-03-04T22:49:40.445Z,7.90
2023-03-04T22:51:45.970Z,7.90
2023-03-04T22:53:51.401Z,7.93
2023-03-04T22:55:59.835Z,7.97
2023-03-04T22:58:04.844Z,8.00
2023-03-04T23:00:16.490Z,7.99
2023-03-04T23:02:20.986Z,7.95
2023-03-04T23:04:28.066Z,7.92
2023-03-04T23:06:32.536Z,7.90
2023-03-04T23:08:37.962Z,7.83
2023-03-04T23:10:43.781Z,7.77
2023-03-04T23:12:48.437Z,7.75
2023-03-04T23:14:52.870Z,7.76
2023-03-04T23:16:57.355Z,7.77
2023-03-04T23:18:59.850Z,7.79
2023-03-04T23:21:10.391Z,7.79
2023-03-04T23:23:14.956Z,7.81
2023-03-04T23:25:19.625Z,7.88
2023-03-04T23:27:24.009Z,7.89
2023-03-04T23:29:28.451Z,7.88
2023-03-04T23:31:33.294Z,7.88
2023-03-04T23:33:39.613Z,7.85
2023-03-04T23:35:44.080Z,7.78
2023-03-04T23:37:52.033Z,7.70
2023-03-04T23:39:56.442Z,7.62
2023-03-04T23:42:00.885Z,7.53
2023-03-04T23:44:05.404Z,7.46
2023-03-04T23:46:11.761Z,7.41
2023-03-04T23:48:16.381Z,7.38
2023-03-04T23:50:21.043Z,7.34
2023-03-04T23:52:25.454Z,7.36
2023-03-04T23:54:32.970Z,7.35
2023-03-04T23:56:37.365Z,7.30
2023-03-04T23:58:42.674Z,7.30
